Latest Weather Observations for Territory Grape Farm

IDD60801

Issued at 3:31 pm CST Thursday 11 February 2016 (issued every 30 minutes, with the page automatically refreshed every 10 minutes)

About weather observations | Map of weather stations | Latest weather observations for NT | Other Formats
Station Details ID: 015643 Name: TERRITORY GRAPE FARM Lat: -22.45 Lon: 133.64 Height: 565.6 m
Data from the previous 72 hours. | See also: Recent months at Territory Grape Farm
Date/Time
CST
Temp
°C
App
Temp
°C
Dew
Point
Rel
Hum
%
Delta-T
°C
Wind Press
QNH
hPa
Press
MSL
hPa
Rain
since 9 am
mm
Dir
 
Spd
km/h
Gust
km/h
Spd
kts
Gust
kts
11/03:30pm 38.1 33.3 2.5 11 19.1 ESE 17 30 9 16 1009.9 1005.5 0.0
11/03:00pm 38.0 35.3 2.5 11 19.0 NE 6 19 3 10 1010.1 1005.8 0.0
11/02:30pm 38.1 33.7 2.5 11 19.1 E 15 28 8 15 1010.4 1006.1 0.0
11/02:00pm 37.8 32.7 1.0 10 19.2 SE 17 32 9 17 1010.9 1006.5 0.0
11/01:30pm 37.9 32.1 2.4 11 19.0 ESE 22 37 12 20 1011.3 1006.9 0.0
11/01:00pm 37.8 32.7 1.0 10 19.2 E 17 35 9 19 1011.6 1007.2 0.0
11/12:40pm 38.1 32.1 1.2 10 19.4 ESE 22 50 12 27 1011.8 1007.5 0.0
11/12:30pm 36.7 31.1 1.5 11 18.5 ESE 20 46 11 25 1012.0 1007.7 0.0
11/12:00pm 36.7 31.1 0.1 10 18.8 SE 19 39 10 21 1012.4 1008.1 0.0
11/11:30am 36.8 30.7 0.2 10 18.8 ESE 22 43 12 23 1012.9 1008.5 0.0
11/11:00am 36.1 29.3 1.0 11 18.2 ESE 26 65 14 35 1013.2 1008.8 0.0
11/10:52am 36.9 30.6 1.6 11 18.5 ESE 24 65 13 35 1013.2 1008.8 0.0
11/10:30am 36.1 30.1 1.0 11 18.2 ESE 22 39 12 21 1013.5 1009.2 0.0
11/10:00am 35.9 31.0 4.2 14 17.2 ESE 19 30 10 16 1013.7 1009.4 0.0
11/09:30am 34.0 29.0 4.6 16 15.9 ESE 20 26 11 14 1013.9 1009.6 0.0
11/09:00am 32.7 27.7 4.5 17 15.2 ESE 20 32 11 17 1013.8 1009.5 0.0
11/08:30am 31.1 27.1 4.8 19 14.1 ESE 15 20 8 11 1013.8 1009.5 0.0
11/08:00am 28.2 25.4 5.1 23 12.2 SE 9 11 5 6 1013.6 1009.3 0.0
11/07:30am 25.0 22.6 5.2 28 10.3 SSE 7 9 4 5 1013.4 1009.1 0.0
11/07:00am 23.0 20.5 5.0 31 9.2 ESE 7 9 4 5 1013.2 1008.8 0.0
11/06:30am 21.2 18.2 4.3 33 8.4 ESE 9 9 5 5 1012.9 1008.5 0.0
11/06:00am 20.5 17.6 4.5 35 8.0 ESE 9 11 5 6 1012.7 1008.3 0.0
11/05:30am 20.8 17.9 4.8 35 8.1 ESE 9 11 5 6 1012.4 1008.1 0.0
11/05:00am 20.9 17.6 4.5 34 8.2 ESE 11 15 6 8 1012.4 1008.1 0.0
11/04:30am 21.5 17.9 3.2 30 9.0 SE 11 13 6 7 1012.4 1008.1 0.0
11/04:00am 23.9 20.5 3.8 27 10.1 SSE 11 13 6 7 1012.3 1008.0 0.0
11/03:30am 24.0 20.3 4.4 28 10.0 SE 13 15 7 8 1012.2 1007.9 0.0
11/03:00am 23.8 20.4 4.2 28 10.0 SSE 11 13 6 7 1012.2 1007.9 0.0
11/02:30am 22.4 19.5 4.5 31 9.1 ESE 9 9 5 5 1012.2 1007.9 0.0
11/02:00am 24.6 21.7 4.4 27 10.3 S 9 11 5 6 1012.0 1007.7 0.0
11/01:30am 25.3 22.0 4.4 26 10.8 S 11 13 6 7 1012.1 1007.8 0.0
11/01:00am 25.7 22.7 4.2 25 11.0 S 9 13 5 7 1012.2 1007.9 0.0
11/12:30am 26.3 23.2 3.5 23 11.6 S 9 13 5 7 1012.3 1008.0 0.0
11/12:00am 26.7 23.5 3.2 22 11.9 S 9 13 5 7 1012.4 1008.1 0.0
 
Date/Time
CST
Temp
°C
App
Temp
°C
Dew
Point
Rel
Hum
%
Delta-T
°C
Wind Press
QNH
hPa
Press
MSL
hPa
Rain
since 9 am
mm
Dir
 
Spd
km/h
Gust
km/h
Spd
kts
Gust
kts
10/11:30pm 27.3 23.7 3.1 21 12.3 S 11 13 6 7 1012.7 1008.3 0.0
10/11:00pm 27.3 24.1 3.1 21 12.3 S 9 13 5 7 1012.9 1008.5 0.0
10/10:30pm 27.4 23.7 2.5 20 12.5 SSE 11 15 6 8 1012.9 1008.5 0.0
10/10:00pm 29.1 25.0 2.4 18 13.6 SSE 13 17 7 9 1012.7 1008.3 0.0
10/09:30pm 29.8 25.7 2.1 17 14.1 SSE 13 17 7 9 1012.3 1008.0 0.0
10/09:00pm 28.3 24.1 1.7 18 13.3 SE 13 15 7 8 1012.1 1007.8 0.0
10/08:30pm 30.1 26.1 0.6 15 14.6 SE 11 13 6 7 1011.7 1007.4 0.0
10/08:00pm 30.7 26.8 1.1 15 14.9 SE 11 13 6 7 1011.2 1006.8 0.0
10/07:30pm 33.0 28.4 -1.4 11 16.8 SE 13 22 7 12 1010.7 1006.3 0.0
10/07:00pm 34.6 28.8 -1.4 10 17.8 SE 19 28 10 15 1010.3 1006.0 0.0
10/06:30pm 35.9 29.1 -1.9 9 18.7 ESE 24 35 13 19 1010.0 1005.6 0.0
10/06:00pm 36.7 30.9 -1.3 9 19.1 SSE 19 32 10 17 1009.8 1005.4 0.0
10/05:30pm 37.2 30.5 -0.9 9 19.3 SE 24 41 13 22 1009.5 1005.1 0.0
10/05:00pm 38.1 31.9 -0.3 9 19.7 SE 22 52 12 28 1009.5 1005.1 0.0
10/04:56pm 37.8 31.3 -2.1 8 19.9 ESE 22 52 12 28 1009.4 1005.0 0.0
10/04:30pm 38.0 31.4 -0.3 9 19.7 ESE 24 39 13 21 1009.3 1004.9 0.0
10/04:00pm 38.1 31.9 -0.3 9 19.7 ESE 22 46 12 25 1009.4 1005.0 0.0
10/03:30pm 37.5 31.8 -0.7 9 19.5 SE 19 33 10 18 1009.6 1005.2 0.0
10/03:00pm 38.1 32.7 1.2 10 19.4 SSE 19 35 10 19 1010.1 1005.8 0.0
10/02:30pm 38.0 31.8 -0.3 9 19.7 E 22 33 12 18 1010.4 1006.1 0.0
10/02:00pm 37.5 31.2 -0.7 9 19.4 ESE 22 41 12 22 1010.9 1006.5 0.0
10/01:30pm 37.1 30.0 -1.0 9 19.3 SE 26 39 14 21 1011.3 1006.9 0.0
10/01:00pm 37.1 32.2 1.8 11 18.6 SSE 17 30 9 16 1011.7 1007.4 0.0
10/12:30pm 37.2 31.1 0.5 10 19.0 ESE 22 33 12 18 1012.1 1007.8 0.0
10/12:00pm 36.9 30.6 1.6 11 18.6 ESE 24 39 13 21 1012.6 1008.2 0.0
10/11:30am 35.8 29.0 0.8 11 18.1 SE 26 41 14 22 1013.0 1008.6 0.0
10/11:00am 36.1 32.0 2.2 12 17.9 SE 13 33 7 18 1013.2 1008.8 0.0
10/10:30am 35.0 29.6 1.4 12 17.4 E 19 32 10 17 1013.5 1009.2 0.0
10/10:00am 34.8 29.0 2.3 13 17.1 ESE 22 30 12 16 1013.7 1009.4 0.0
10/09:30am 34.2 28.1 2.9 14 16.5 E 24 32 13 17 1013.9 1009.6 0.0
10/09:00am 32.8 27.6 5.4 18 15.0 ESE 22 30 12 16 1013.8 1009.5 0.6
10/08:30am 31.4 26.3 5.8 20 14.0 SE 22 32 12 17 1013.7 1009.4 0.6
10/08:00am 29.1 25.6 7.1 25 12.1 SE 15 22 8 12 1013.6 1009.3 0.6
10/07:30am 24.4 22.8 8.8 37 8.6 S 7 9 4 5 1013.5 1009.2 0.6
10/07:00am 22.7 20.9 8.0 39 7.9 S 7 11 4 6 1013.1 1008.7 0.6
10/06:30am 22.3 20.2 8.1 40 7.7 S 9 13 5 7 1012.9 1008.5 0.6
10/06:00am 21.9 19.3 9.4 45 6.9 SSE 13 15 7 8 1012.6 1008.2 0.6
10/05:30am 20.1 18.2 10.5 54 5.4 SE 11 13 6 7 1012.2 1007.9 0.6
10/05:00am 21.4 19.6 10.9 51 5.9 SSE 11 15 6 8 1012.2 1007.9 0.6
10/04:30am 22.4 21.2 11.5 50 6.3 SSE 9 11 5 6 1012.1 1007.8 0.6
10/04:00am 22.4 21.7 12.1 52 6.0 S 7 9 4 5 1012.1 1007.8 0.6
10/03:30am 22.2 21.7 12.2 53 5.8 S 6 7 3 4 1012.0 1007.7 0.6
10/03:00am 22.9 22.3 12.2 51 6.2 S 7 9 4 5 1012.2 1007.9 0.6
10/02:30am 23.4 22.8 12.4 50 6.4 S 7 9 4 5 1012.2 1007.9 0.6
10/02:00am 23.5 22.8 11.9 48 6.7 SSE 7 9 4 5 1012.3 1008.0 0.6
10/01:30am 25.0 24.2 11.6 43 7.8 S 7 9 4 5 1012.6 1008.2 0.6
10/01:00am 25.2 24.5 12.1 44 7.7 S 7 11 4 6 1012.7 1008.3 0.6
10/12:30am 25.9 25.0 12.7 44 7.8 S 9 11 5 6 1013.0 1008.6 0.6
10/12:00am 26.5 25.6 12.5 41 8.3 S 9 13 5 7 1013.3 1009.0 0.6
 
Date/Time
CST
Temp
°C
App
Temp
°C
Dew
Point
Rel
Hum
%
Delta-T
°C
Wind Press
QNH
hPa
Press
MSL
hPa
Rain
since 9 am
mm
Dir
 
Spd
km/h
Gust
km/h
Spd
kts
Gust
kts
09/11:30pm 26.9 25.9 12.2 40 8.7 SSE 9 15 5 8 1013.5 1009.2 0.6
09/11:00pm 27.4 26.3 11.8 38 9.2 SSE 9 9 5 5 1013.5 1009.2 0.6
09/10:30pm 28.0 26.8 11.5 35 9.7 SE 9 11 5 6 1013.5 1009.2 0.6
09/10:00pm 29.8 27.9 11.8 33 10.7 SE 13 17 7 9 1013.3 1009.0 0.6
09/09:30pm 29.8 27.8 12.7 35 10.3 ESE 15 19 8 10 1012.9 1008.5 0.6
09/09:00pm 29.0 28.2 14.0 39 9.2 SSE 11 17 6 9 1012.7 1008.3 0.6
09/08:30pm 28.4 28.3 13.9 41 8.9 ESE 7 9 4 5 1012.7 1008.3 0.6
09/08:00pm 29.8 28.4 12.3 34 10.5 E 11 13 6 7 1012.3 1008.0 0.6
09/07:30pm 30.9 28.5 11.3 30 11.6 E 15 20 8 11 1012.0 1007.7 0.6
09/07:00pm 31.2 26.0 11.6 30 11.7 ESE 30 50 16 27 1012.0 1007.7 0.6
09/06:54pm 31.5 27.9 11.8 30 11.8 ESE 22 50 12 27 1012.1 1007.8 0.6
09/06:30pm 33.7 30.9 11.5 26 13.4 E 17 24 9 13 1011.5 1007.1 0.6
09/06:00pm 33.0 27.8 11.5 27 12.9 ESE 30 44 16 24 1011.8 1007.5 0.6
09/05:33pm 32.0 27.2 12.8 31 11.7 SE 30 52 16 28 1011.8 1007.5 0.6
09/05:30pm 32.2 27.3 12.4 30 12.0 SE 30 41 16 22 1011.7 1007.4 0.6
09/05:00pm 33.5 27.8 13.0 29 12.6 SE 35 48 19 26 1011.5 1007.1 0.6
09/04:46pm 33.9 30.2 13.9 30 12.5 SE 26 54 14 29 1011.4 1007.0 0.6
09/04:30pm 32.0 32.0 13.7 33 11.3 ESE 6 9 3 5 1011.4 1007.0 0.6
09/04:03pm 28.8 27.3 16.4 47 7.9 S 19 56 10 30 1012.1 1007.8 0.6
09/04:00pm 28.6 29.1 19.2 56 6.2 SSW 15 33 8 18 1012.1 1007.8 0.6
09/03:41pm 29.4 25.4 14.0 39 9.5 SSE 28 43 15 23 1011.6 1007.2 0.0
09/03:37pm 34.7 31.1 11.8 25 13.9 SE 22 43 12 23 1011.4 1007.0 0.0
09/03:30pm 35.3 32.2 10.4 22 14.9 SE 17 26 9 14 1011.4 1007.0 0.0
09/03:00pm 35.3 31.5 9.7 21 15.1 ESE 20 30 11 16 1011.5 1007.1 0.0
09/02:30pm 36.7 32.2 10.1 20 15.9 E 24 37 13 20 1011.9 1007.6 0.0
09/02:00pm 36.2 32.0 9.7 20 15.7 ESE 22 35 12 19 1012.2 1007.9 0.0
09/01:30pm 35.7 31.0 9.3 20 15.5 ESE 24 35 13 19 1012.6 1008.2 0.0
09/01:00pm 36.3 31.7 9.8 20 15.7 ESE 24 39 13 21 1013.1 1008.7 0.0
09/12:30pm 36.1 32.6 11.0 22 15.1 ESE 20 35 11 19 1013.5 1009.2 0.0
09/12:00pm 34.9 31.0 10.7 23 14.5 ESE 22 32 12 17 1013.9 1009.6 0.0
09/11:30am 34.6 29.8 10.4 23 14.4 ESE 26 41 14 22 1014.2 1009.9 0.0
09/11:00am 34.7 30.0 10.5 23 14.4 SE 26 35 14 19 1014.6 1010.2 0.0
09/10:30am 34.7 31.3 11.2 24 14.1 ESE 20 33 11 18 1014.8 1010.4 0.0
09/10:00am 34.4 31.1 11.5 25 13.8 SE 20 30 11 16 1014.9 1010.6 0.0
09/09:30am 32.8 28.7 10.2 25 13.3 ESE 22 30 12 16 1015.1 1010.8 0.0
09/09:00am 32.3 28.9 9.2 24 13.3 SE 17 28 9 15 1015.2 1010.9 0.0
09/08:30am 30.0 27.3 9.0 27 12.0 SSE 13 20 7 11 1015.2 1010.9 0.0
09/08:00am 27.9 26.2 9.7 32 10.4 SSE 9 13 5 7 1015.2 1010.9 0.0
09/07:30am 25.4 24.5 11.2 41 8.2 S 7 11 4 6 1015.2 1010.9 0.0
09/07:00am 24.2 23.0 11.5 45 7.3 S 9 13 5 7 1015.1 1010.8 0.0
09/06:30am 23.3 22.6 12.0 49 6.6 S 7 11 4 6 1014.7 1010.3 0.0
09/06:00am 23.5 23.0 12.5 50 6.4 S 7 9 4 5 1014.2 1009.9 0.0
09/05:30am 23.7 23.2 12.7 50 6.5 SSW 7 9 4 5 1014.1 1009.8 0.0
09/05:00am 23.9 23.6 12.8 49 6.6 SSW 6 7 3 4 1013.9 1009.6 0.0
09/04:30am 24.7 24.2 12.6 47 7.1 S 7 11 4 6 1013.7 1009.4 0.0
09/04:00am 24.9 24.4 12.8 47 7.2 S 7 11 4 6 1013.5 1009.2 0.0
09/03:30am 25.3 24.9 12.9 46 7.4 S 7 11 4 6 1013.6 1009.3 0.0
09/03:00am 25.3 25.0 13.2 47 7.2 S 7 11 4 6 1013.5 1009.2 0.0
09/02:30am 25.5 25.2 13.4 47 7.3 S 7 9 4 5 1013.6 1009.3 0.0
09/02:00am 26.2 25.9 13.3 45 7.8 S 7 9 4 5 1013.6 1009.3 0.0
09/01:30am 26.6 26.3 13.3 43 8.0 SSE 7 9 4 5 1013.9 1009.6 0.0
09/01:00am 26.2 26.6 13.7 46 7.6 SSE 4 6 2 3 1014.2 1009.9 0.0
09/12:30am 25.8 25.9 14.0 48 7.2 SE 6 6 3 3 1014.6 1010.2 0.0
09/12:00am 26.6 26.5 13.3 43 8.0 SE 6 7 3 4 1014.9 1010.6 0.0
 
Date/Time
CST
Temp
°C
App
Temp
°C
Dew
Point
Rel
Hum
%
Delta-T
°C
Wind Press
QNH
hPa
Press
MSL
hPa
Rain
since 9 am
mm
Dir
 
Spd
km/h
Gust
km/h
Spd
kts
Gust
kts
08/11:30pm 26.8 26.3 12.8 42 8.4 SE 7 7 4 4 1015.0 1010.7 0.0
08/11:00pm 28.6 28.1 12.5 37 9.6 SSE 7 9 4 5 1015.1 1010.8 0.0
08/10:30pm 29.6 27.8 12.1 34 10.5 ESE 13 17 7 9 1015.0 1010.7 0.0
08/10:00pm 30.2 28.4 12.1 32 10.8 ESE 13 19 7 10 1014.8 1010.4 0.0
08/09:30pm 30.5 28.2 11.9 31 11.1 ESE 15 20 8 11 1014.6 1010.2 0.0
08/09:00pm 30.9 28.0 12.3 32 11.2 SE 19 24 10 13 1014.1 1009.8 0.0
08/08:30pm 31.4 28.5 12.2 30 11.6 SE 19 24 10 13 1013.7 1009.4 0.0
08/08:00pm 32.1 28.6 12.3 29 12.0 ESE 22 35 12 19 1013.4 1009.1 0.0
08/07:30pm 32.7 28.3 11.8 28 12.6 ESE 26 35 14 19 1013.0 1008.6 0.0
08/07:00pm 33.1 29.0 11.6 27 12.9 ESE 24 35 13 19 1012.7 1008.3 0.0
08/06:30pm 34.1 29.6 11.3 25 13.7 SE 26 35 14 19 1012.2 1007.9 0.0
08/06:00pm 34.8 30.8 11.9 25 13.9 ESE 24 37 13 20 1012.1 1007.8 0.0
08/05:30pm 33.6 29.3 10.9 25 13.5 SE 24 35 13 19 1012.1 1007.8 0.0
08/05:00pm 35.5 30.8 10.5 22 14.9 ESE 26 35 14 19 1012.0 1007.7 0.0
08/04:30pm 35.4 30.2 10.4 22 14.9 ESE 28 48 15 26 1012.0 1007.7 0.0
08/04:00pm 34.6 28.7 7.6 19 15.4 ESE 28 43 15 23 1012.1 1007.8 0.0

Other Formats:

Comma delimited format used in spreadsheet applications
http://www.bom.gov.au/fwo/IDD60801/IDD60801.94328.axf

JavaScript Object Notation format (JSON) in row-major order
http://www.bom.gov.au/fwo/IDD60801/IDD60801.94328.json